createdAt,value
2022-11-24T00:01:30.730Z,32.95
2022-11-24T00:04:03.573Z,35.33
2022-11-24T00:06:32.215Z,32.92
2022-11-24T00:08:59.471Z,35.00
2022-11-24T00:11:29.369Z,35.30
2022-11-24T00:13:57.660Z,31.95
2022-11-24T00:16:30.967Z,34.40
2022-11-24T00:18:59.198Z,33.58
2022-11-24T00:21:29.566Z,36.67
2022-11-24T00:23:57.375Z,31.33
2022-11-24T00:26:27.583Z,38.50
2022-11-24T00:28:56.681Z,31.30
2022-11-24T00:31:29.028Z,32.30
2022-11-24T00:33:59.088Z,29.52
2022-11-24T00:36:28.770Z,34.30
2022-11-24T00:39:01.476Z,31.08
2022-11-24T00:41:29.764Z,32.90
2022-11-24T00:43:57.318Z,29.02
2022-11-24T00:51:50.986Z,29.92
2022-11-24T00:57:19.619Z,27.05
2022-11-24T00:59:47.107Z,28.52
2022-11-24T01:02:14.620Z,29.35
2022-11-24T01:05:03.759Z,29.35
2022-11-24T01:10:13.836Z,28.05
2022-11-24T01:12:41.213Z,31.73
2022-11-24T01:15:10.081Z,29.75
2022-11-24T01:17:39.562Z,34.67
2022-11-24T01:20:19.450Z,25.30
2022-11-24T01:23:04.423Z,28.58
2022-11-24T01:25:33.106Z,32.22
2022-11-24T01:28:01.373Z,29.42
2022-11-24T01:30:31.445Z,29.23
2022-11-24T01:32:58.484Z,28.80
2022-11-24T01:38:26.508Z,36.28
2022-11-24T01:41:10.501Z,33.38
2022-11-24T01:43:37.657Z,32.28
2022-11-24T01:46:16.758Z,34.53
2022-11-24T01:48:52.100Z,34.10
2022-11-24T01:51:28.738Z,32.17
2022-11-24T01:54:24.706Z,31.02
2022-11-24T01:56:56.179Z,31.38
2022-11-24T01:59:39.473Z,25.63
2022-11-24T02:02:08.046Z,33.80
2022-11-24T02:04:37.162Z,28.85
2022-11-24T02:07:06.727Z,34.50
2022-11-24T02:12:26.881Z,30.05
2022-11-24T02:14:57.112Z,31.98
2022-11-24T02:17:23.915Z,27.25
2022-11-24T02:20:08.471Z,28.05
2022-11-24T02:22:44.537Z,33.75
2022-11-24T02:25:30.559Z,28.30
2022-11-24T02:28:00.598Z,31.27
2022-11-24T02:30:27.889Z,30.13
2022-11-24T02:32:56.332Z,30.60
2022-11-24T02:35:25.649Z,26.60
2022-11-24T02:41:01.311Z,28.98
2022-11-24T02:43:32.727Z,28.55
2022-11-24T02:45:59.975Z,29.73
2022-11-24T02:48:28.460Z,32.15
2022-11-24T02:50:55.497Z,28.42
2022-11-24T02:53:22.919Z,27.42
2022-11-24T02:58:38.540Z,28.67
2022-11-24T03:04:13.165Z,24.90
2022-11-24T03:12:25.564Z,22.80
2022-11-24T03:18:29.894Z,24.70
2022-11-24T03:21:00.032Z,26.00
2022-11-24T03:23:26.852Z,24.90
2022-11-24T03:25:54.626Z,23.92
2022-11-24T03:28:21.458Z,25.08
2022-11-24T03:30:49.219Z,26.10
2022-11-24T03:33:16.094Z,25.27
2022-11-24T03:35:42.778Z,31.30
2022-11-24T03:38:10.613Z,26.35
2022-11-24T03:40:37.362Z,22.08
2022-11-24T03:43:04.084Z,23.00
2022-11-24T03:45:46.019Z,24.00
2022-11-24T03:51:05.929Z,23.23
2022-11-24T03:53:45.331Z,25.45
2022-11-24T03:56:16.880Z,25.67
2022-11-24T03:58:48.452Z,26.20
2022-11-24T04:01:16.623Z,23.05
2022-11-24T04:03:53.509Z,27.02
2022-11-24T04:06:25.037Z,27.10
2022-11-24T04:08:52.149Z,27.80
2022-11-24T04:11:37.967Z,24.17
2022-11-24T04:14:13.606Z,23.90
2022-11-24T04:16:41.444Z,26.95
2022-11-24T04:19:08.630Z,23.13
2022-11-24T04:21:35.483Z,27.73
2022-11-24T04:24:03.813Z,26.20
2022-11-24T04:26:33.513Z,22.80
2022-11-24T04:29:00.170Z,22.77
2022-11-24T04:31:27.196Z,22.60
2022-11-24T04:33:54.978Z,22.85
2022-11-24T04:36:24.053Z,21.85
2022-11-24T04:39:25.775Z,17.92
2022-11-24T04:41:41.560Z,21.95
2022-11-24T04:44:10.531Z,21.00
2022-11-24T04:46:37.204Z,26.42
2022-11-24T04:49:03.958Z,25.55
2022-11-24T04:51:30.670Z,20.48
2022-11-24T04:53:57.440Z,26.08
2022-11-24T04:56:24.132Z,24.40
2022-11-24T04:58:50.736Z,31.15
2022-11-24T05:01:17.483Z,25.25
2022-11-24T05:03:44.350Z,29.85
2022-11-24T05:06:11.091Z,24.02
2022-11-24T05:08:37.893Z,26.50
2022-11-24T05:11:06.573Z,25.13
2022-11-24T05:13:33.382Z,29.33
2022-11-24T05:16:01.254Z,26.85
2022-11-24T05:18:28.820Z,26.77
2022-11-24T05:20:55.757Z,28.42
2022-11-24T05:23:22.330Z,28.95
2022-11-24T05:25:49.082Z,25.30
2022-11-24T05:28:16.081Z,26.88
2022-11-24T05:30:42.819Z,25.65
2022-11-24T05:33:19.164Z,31.20
2022-11-24T05:35:47.417Z,29.33
2022-11-24T05:38:14.152Z,30.17
2022-11-24T05:40:41.044Z,31.83
2022-11-24T05:43:15.603Z,26.42
2022-11-24T05:45:43.019Z,35.55
2022-11-24T05:48:15.123Z,29.80
2022-11-24T05:50:42.388Z,30.73
2022-11-24T05:53:12.115Z,26.60
2022-11-24T05:55:40.439Z,20.17
2022-11-24T05:58:10.195Z,29.08
2022-11-24T06:00:37.165Z,24.48
2022-11-24T06:03:04.174Z,29.52
2022-11-24T06:05:31.162Z,27.38
2022-11-24T06:08:00.140Z,25.48
2022-11-24T06:10:27.272Z,24.90
2022-11-24T06:12:53.979Z,24.05
2022-11-24T06:15:21.364Z,23.58
2022-11-24T06:17:55.834Z,26.48
2022-11-24T06:20:28.328Z,26.48
2022-11-24T06:23:00.090Z,24.70
2022-11-24T06:25:27.480Z,22.60
2022-11-24T06:27:56.236Z,25.25
2022-11-24T06:30:25.456Z,25.45
2022-11-24T06:32:59.469Z,23.23
2022-11-24T06:35:28.438Z,28.88
2022-11-24T06:37:55.048Z,27.90
2022-11-24T06:40:21.822Z,28.30
2022-11-24T06:42:52.274Z,24.75
2022-11-24T06:45:22.591Z,25.27
2022-11-24T06:47:49.464Z,25.95
2022-11-24T06:50:16.728Z,24.00
2022-11-24T06:52:46.989Z,21.88
2022-11-24T06:55:13.656Z,24.65
2022-11-24T06:57:41.804Z,25.50
2022-11-24T07:00:09.045Z,23.75
2022-11-24T07:02:38.799Z,26.13
2022-11-24T07:05:08.127Z,25.50
2022-11-24T07:07:34.825Z,28.58
2022-11-24T07:10:01.513Z,26.33
2022-11-24T07:12:29.261Z,30.80
2022-11-24T07:14:56.476Z,28.75
2022-11-24T07:17:25.618Z,29.73
2022-11-24T07:19:55.261Z,28.35
2022-11-24T07:22:21.936Z,25.90
2022-11-24T07:24:50.826Z,24.63
2022-11-24T07:27:17.532Z,27.63
2022-11-24T07:29:44.179Z,27.25
2022-11-24T07:32:10.874Z,26.23
2022-11-24T07:34:37.743Z,24.23
2022-11-24T07:37:04.400Z,20.98
2022-11-24T07:39:31.203Z,20.42
2022-11-24T07:42:00.893Z,22.02
2022-11-24T07:44:27.663Z,17.25
2022-11-24T07:46:54.443Z,14.77
2022-11-24T07:49:21.182Z,11.10
2022-11-24T07:51:48.013Z,16.13
2022-11-24T07:54:15.473Z,16.08
2022-11-24T07:56:42.106Z,20.67
2022-11-24T07:59:08.913Z,16.02
2022-11-24T08:01:35.721Z,13.77
2022-11-24T08:04:02.727Z,14.40
2022-11-24T08:06:36.228Z,13.68
2022-11-24T08:09:06.520Z,16.08
2022-11-24T08:11:59.387Z,16.77
2022-11-24T08:14:51.746Z,20.73
2022-11-24T08:17:19.730Z,17.27
2022-11-24T08:19:46.524Z,18.70
2022-11-24T08:22:36.844Z,10.73
2022-11-24T08:25:03.727Z,11.00
2022-11-24T08:27:37.067Z,11.65
2022-11-24T08:30:11.772Z,11.02
2022-11-24T08:32:41.087Z,9.07
2022-11-24T08:35:14.021Z,11.23
2022-11-24T08:37:41.143Z,10.23
2022-11-24T08:40:08.338Z,10.55
2022-11-24T08:42:34.997Z,13.43
2022-11-24T08:45:17.543Z,11.07
2022-11-24T08:47:52.548Z,12.73
2022-11-24T08:50:19.277Z,11.07
2022-11-24T08:52:54.560Z,14.07
2022-11-24T08:55:24.101Z,11.38
2022-11-24T08:57:50.727Z,13.50
2022-11-24T09:00:22.518Z,11.82
2022-11-24T09:02:55.579Z,16.90
2022-11-24T09:05:50.071Z,12.48
2022-11-24T09:08:09.088Z,11.75
2022-11-24T09:10:36.455Z,12.23
2022-11-24T09:13:03.483Z,11.10
2022-11-24T09:15:30.260Z,12.60
2022-11-24T09:17:57.456Z,9.80
2022-11-24T09:20:24.146Z,8.60
2022-11-24T09:22:51.405Z,9.60
2022-11-24T09:29:24.119Z,10.93
2022-11-24T09:34:56.795Z,9.10
2022-11-24T10:01:39.715Z,10.50
2022-11-24T10:08:33.352Z,17.75
2022-11-24T10:11:25.976Z,10.90
2022-11-24T10:18:35.657Z,11.70
2022-11-24T10:27:58.240Z,10.77
2022-11-24T10:40:58.788Z,10.85
2022-11-24T10:57:31.978Z,14.55
2022-11-24T11:07:24.355Z,25.23
2022-11-24T11:10:21.812Z,29.95
2022-11-24T11:12:49.063Z,22.27
2022-11-24T11:15:32.354Z,19.98
2022-11-24T11:18:14.791Z,22.65
2022-11-24T11:20:58.084Z,21.75
2022-11-24T11:26:40.539Z,23.73
2022-11-24T11:41:41.937Z,17.17
2022-11-24T11:44:41.427Z,19.98
2022-11-24T11:56:54.260Z,22.08
2022-11-24T12:00:07.519Z,18.58
2022-11-24T12:03:29.827Z,21.50
2022-11-24T12:13:28.676Z,16.15
2022-11-24T12:19:24.907Z,17.75
2022-11-24T12:22:59.281Z,17.58
2022-11-24T12:25:40.991Z,18.05
2022-11-24T12:36:39.399Z,21.08
2022-11-24T12:43:25.920Z,15.82
2022-11-24T12:46:17.690Z,17.65
2022-11-24T12:52:37.439Z,17.08
2022-11-24T13:08:39.420Z,19.90
2022-11-24T13:11:52.512Z,16.92
2022-11-24T13:14:22.837Z,18.73
2022-11-24T13:17:13.327Z,16.27
2022-11-24T13:19:37.645Z,18.25
2022-11-24T13:22:07.349Z,16.98
2022-11-24T13:24:37.034Z,17.00
2022-11-24T13:27:16.455Z,16.45
2022-11-24T13:41:50.583Z,14.93
2022-11-24T13:44:23.491Z,18.50
2022-11-24T13:50:58.655Z,14.40
2022-11-24T13:53:25.199Z,17.08
2022-11-24T13:55:59.347Z,14.98
2022-11-24T13:58:46.241Z,17.77
2022-11-24T14:02:35.981Z,21.67
2022-11-24T14:05:03.029Z,17.75
2022-11-24T14:07:31.600Z,21.52
2022-11-24T14:09:58.825Z,19.00
2022-11-24T14:12:28.738Z,17.85
2022-11-24T14:15:26.169Z,19.13
2022-11-24T14:17:53.153Z,19.50
2022-11-24T14:20:34.303Z,16.58
2022-11-24T14:23:03.834Z,18.85
2022-11-24T14:25:56.744Z,13.80
2022-11-24T14:28:29.720Z,21.40
2022-11-24T14:34:11.496Z,17.15
2022-11-24T14:36:39.690Z,14.18
2022-11-24T14:39:07.241Z,13.13
2022-11-24T14:41:34.438Z,15.52
2022-11-24T14:44:20.361Z,16.88
2022-11-24T14:46:50.274Z,15.88
2022-11-24T14:49:22.424Z,17.17
2022-11-24T14:51:56.665Z,16.27
2022-11-24T14:54:24.730Z,15.63
2022-11-24T14:57:06.616Z,15.43
2022-11-24T14:59:36.407Z,19.13
2022-11-24T15:02:03.992Z,14.47
2022-11-24T15:05:00.848Z,13.30
2022-11-24T15:07:26.432Z,15.75
2022-11-24T15:13:24.205Z,15.38
2022-11-24T15:19:35.816Z,12.60
2022-11-24T15:22:28.334Z,12.38
2022-11-24T15:33:49.429Z,15.48
2022-11-24T15:39:27.544Z,16.92
2022-11-24T15:41:59.461Z,16.50
2022-11-24T15:44:26.787Z,13.43
2022-11-24T15:47:14.436Z,14.80
2022-11-24T15:49:42.878Z,13.50
2022-11-24T15:52:21.185Z,12.05
2022-11-24T15:55:04.600Z,13.73
2022-11-24T15:57:35.702Z,16.02
2022-11-24T16:02:44.823Z,17.98
2022-11-24T16:08:17.277Z,16.73
2022-11-24T16:11:33.829Z,13.60
2022-11-24T16:23:20.819Z,18.52
2022-11-24T16:29:08.753Z,16.13
2022-11-24T16:31:53.072Z,21.90
2022-11-24T16:34:48.159Z,17.63
2022-11-24T16:37:18.373Z,19.80
2022-11-24T16:51:01.846Z,29.13
2022-11-24T16:53:36.223Z,25.13
2022-11-24T16:56:17.658Z,28.73
2022-11-24T16:58:49.086Z,21.63
2022-11-24T17:04:01.675Z,27.95
2022-11-24T17:06:30.822Z,32.38
2022-11-24T17:09:20.433Z,26.85
2022-11-24T17:12:06.239Z,25.27
2022-11-24T17:15:09.420Z,27.58
2022-11-24T17:18:01.219Z,28.15
2022-11-24T17:20:28.044Z,29.30
2022-11-24T17:22:59.034Z,33.85
2022-11-24T17:25:48.223Z,30.98
2022-11-24T17:28:19.047Z,32.53
2022-11-24T17:30:47.495Z,35.28
2022-11-24T17:36:27.803Z,32.03
2022-11-24T17:38:59.273Z,30.13
2022-11-24T17:41:25.890Z,31.83
2022-11-24T17:43:55.488Z,33.60
2022-11-24T17:46:23.155Z,27.75
2022-11-24T17:48:49.834Z,29.00
2022-11-24T17:51:18.851Z,32.13
2022-11-24T17:53:49.207Z,42.05
2022-11-24T17:56:18.354Z,26.20
2022-11-24T17:58:44.960Z,34.10
2022-11-24T18:01:12.905Z,24.00
2022-11-24T18:03:40.479Z,29.90
2022-11-24T18:06:09.193Z,28.73
2022-11-24T18:08:37.432Z,26.30
2022-11-24T18:11:06.243Z,34.47
2022-11-24T18:13:54.891Z,28.02
2022-11-24T18:16:19.713Z,23.98
2022-11-24T18:18:50.310Z,26.80
2022-11-24T18:21:17.736Z,27.77
2022-11-24T18:23:44.832Z,25.88
2022-11-24T18:26:14.849Z,24.08
2022-11-24T18:28:44.070Z,26.38
2022-11-24T18:31:16.108Z,33.35
2022-11-24T18:33:43.796Z,24.55
2022-11-24T18:36:14.029Z,25.45
2022-11-24T18:38:40.815Z,26.60
2022-11-24T18:41:07.769Z,24.83
2022-11-24T18:43:37.470Z,28.02
2022-11-24T18:46:10.195Z,25.05
2022-11-24T18:48:36.855Z,30.40
2022-11-24T18:51:03.506Z,21.23
2022-11-24T18:53:30.404Z,24.42
2022-11-24T18:56:02.600Z,24.67
2022-11-24T18:58:31.277Z,25.23
2022-11-24T19:01:18.990Z,24.17
2022-11-24T19:03:49.035Z,21.58
2022-11-24T19:06:19.008Z,28.30
2022-11-24T19:08:46.362Z,20.67
2022-11-24T19:11:20.665Z,25.98
2022-11-24T19:13:48.731Z,23.58
2022-11-24T19:16:17.036Z,24.83
2022-11-24T19:18:46.515Z,23.90
2022-11-24T19:21:18.097Z,29.00
2022-11-24T19:23:45.585Z,29.38
2022-11-24T19:26:12.185Z,24.00
2022-11-24T19:28:38.707Z,25.75
2022-11-24T19:31:11.695Z,25.73
2022-11-24T19:33:39.030Z,18.60
2022-11-24T19:36:11.993Z,28.08
2022-11-24T19:38:39.397Z,23.92
2022-11-24T19:41:08.562Z,23.20
2022-11-24T19:43:35.621Z,25.25
2022-11-24T19:46:04.487Z,26.17
2022-11-24T19:48:32.995Z,25.95
2022-11-24T19:51:04.570Z,26.95
2022-11-24T19:53:31.525Z,24.75
2022-11-24T19:56:09.419Z,23.58
2022-11-24T19:58:36.986Z,22.10
2022-11-24T20:01:31.173Z,22.85
2022-11-24T20:04:04.362Z,18.92
2022-11-24T20:06:33.670Z,26.13
2022-11-24T20:09:00.975Z,26.63
2022-11-24T20:11:28.837Z,24.33
2022-11-24T20:13:56.123Z,27.33
2022-11-24T20:16:29.497Z,28.83
2022-11-24T20:18:58.449Z,29.80
2022-11-24T20:21:33.039Z,24.95
2022-11-24T20:24:02.555Z,22.13
2022-11-24T20:26:32.203Z,27.52
2022-11-24T20:29:00.276Z,24.25
2022-11-24T20:31:30.492Z,25.63
2022-11-24T20:33:57.552Z,26.65
2022-11-24T20:36:27.172Z,47.95
2022-11-24T20:38:54.201Z,22.25
2022-11-24T20:41:29.512Z,23.73
2022-11-24T20:43:59.705Z,21.58
2022-11-24T20:46:29.694Z,19.38
2022-11-24T20:48:56.830Z,19.92
2022-11-24T20:51:29.359Z,20.60
2022-11-24T20:53:58.915Z,18.00
2022-11-24T20:56:31.356Z,20.45
2022-11-24T20:58:58.585Z,25.85
2022-11-24T21:01:31.118Z,21.13
2022-11-24T21:03:59.244Z,15.95
2022-11-24T21:06:28.087Z,20.08
2022-11-24T21:09:00.474Z,17.10
2022-11-24T21:11:30.332Z,18.48
2022-11-24T21:13:57.225Z,20.08
2022-11-24T21:16:30.043Z,19.73
2022-11-24T21:18:59.844Z,17.70
2022-11-24T21:21:33.367Z,17.03
2022-11-24T21:24:09.552Z,22.80
2022-11-24T21:26:36.992Z,22.17
2022-11-24T21:29:04.670Z,29.45
2022-11-24T21:31:34.297Z,20.23
2022-11-24T21:34:00.847Z,28.58
2022-11-24T21:36:27.516Z,24.50
2022-11-24T21:38:56.575Z,28.35
2022-11-24T21:41:25.036Z,26.90
2022-11-24T21:43:57.743Z,27.88
2022-11-24T21:46:25.139Z,30.33
2022-11-24T21:48:51.849Z,22.50
2022-11-24T21:51:20.786Z,25.77
2022-11-24T21:53:47.737Z,28.35
2022-11-24T21:56:16.989Z,18.70
2022-11-24T21:58:54.856Z,16.00
2022-11-24T22:01:27.971Z,19.23
2022-11-24T22:03:55.031Z,17.27
2022-11-24T22:06:21.906Z,18.75
2022-11-24T22:08:49.120Z,19.75
2022-11-24T22:11:25.373Z,23.73
2022-11-24T22:13:52.823Z,16.27
2022-11-24T22:16:24.344Z,19.70
2022-11-24T22:18:51.553Z,17.25
2022-11-24T22:21:24.216Z,17.60
2022-11-24T22:23:52.547Z,15.88
2022-11-24T22:26:21.465Z,13.63
2022-11-24T22:28:48.840Z,13.48
2022-11-24T22:31:17.588Z,16.52
2022-11-24T22:33:44.794Z,14.32
2022-11-24T22:36:15.931Z,16.58
2022-11-24T22:38:43.424Z,11.52
2022-11-24T22:41:13.155Z,16.27
2022-11-24T22:43:41.000Z,17.20
2022-11-24T22:46:13.833Z,15.80
2022-11-24T22:48:41.597Z,15.50
2022-11-24T22:51:14.399Z,12.93
2022-11-24T22:53:41.831Z,12.35
2022-11-24T22:56:11.003Z,12.98
2022-11-24T22:58:39.284Z,13.15
2022-11-24T23:01:06.461Z,16.92
2022-11-24T23:03:36.849Z,11.00
2022-11-24T23:06:06.223Z,13.50
2022-11-24T23:08:34.257Z,13.18
2022-11-24T23:11:07.582Z,14.38
2022-11-24T23:13:34.813Z,11.80
2022-11-24T23:16:10.554Z,11.88
2022-11-24T23:18:37.323Z,10.95
2022-11-24T23:21:34.575Z,10.80
2022-11-24T23:24:02.934Z,15.15
2022-11-24T23:26:33.112Z,11.90
2022-11-24T23:29:00.223Z,11.50
2022-11-24T23:31:28.713Z,16.13
2022-11-24T23:34:03.680Z,13.48
2022-11-24T23:36:31.489Z,9.82
2022-11-24T23:39:03.626Z,12.85
2022-11-24T23:41:31.549Z,11.85
2022-11-24T23:43:58.325Z,8.27
2022-11-24T23:46:26.791Z,10.20
2022-11-24T23:48:55.144Z,9.27
2022-11-24T23:51:30.045Z,9.13
2022-11-24T23:53:57.526Z,11.23
2022-11-24T23:56:32.244Z,13.88
2022-11-24T23:59:00.052Z,14.35
